Time;durP1;ratioP1;P1;durP2;ratioP2;P2;SDS_P1;SDS_P2;PMS_P1;PMS_P2;Temp;Humidity;BMP_temperature;BMP_pressure;BME280_temperature;BME280_humidity;BME280_pressure;Samples;Min_cycle;Max_cycle;Signal;HPM_P1;HPM_P2
2024/01/20 00:00:15;;;;;;;37.73;23.83;;;;;;;-0.56;100.00;101531.38;5055519;28;20213;-70
2024/01/20 00:02:45;;;;;;;39.67;23.73;;;;;;;-0.58;100.00;101527.97;5055954;28;20304;-70
2024/01/20 00:05:14;;;;;;;38.00;23.17;;;;;;;-0.58;100.00;101521.84;5055800;28;20206;-70
2024/01/20 00:07:43;;;;;;;35.07;23.17;;;;;;;-0.57;100.00;101518.28;5055425;28;20684;-70
2024/01/20 00:10:13;;;;;;;34.10;23.63;;;;;;;-0.60;100.00;101519.28;5055397;28;20214;-70
2024/01/20 00:12:43;;;;;;;39.30;24.23;;;;;;;-0.60;100.00;101518.44;5055620;28;20257;-70
2024/01/20 00:15:13;;;;;;;38.10;23.67;;;;;;;-0.58;100.00;101517.44;5055650;28;20194;-70
2024/01/20 00:17:43;;;;;;;37.47;24.13;;;;;;;-0.55;100.00;101519.09;5055568;28;20381;-70
2024/01/20 00:20:13;;;;;;;42.80;24.90;;;;;;;-0.56;100.00;101528.75;5055566;28;20232;-70
2024/01/20 00:22:41;;;;;;;42.07;24.00;;;;;;;-0.57;100.00;101524.41;5055339;28;20272;-70
2024/01/20 00:25:10;;;;;;;40.43;24.63;;;;;;;-0.57;100.00;101527.03;5055383;28;20293;-70
2024/01/20 00:27:40;;;;;;;38.30;24.00;;;;;;;-0.55;100.00;101532.25;5055370;28;20392;-70
2024/01/20 00:30:09;;;;;;;38.73;23.33;;;;;;;-0.55;100.00;101527.00;5055357;28;20202;-70
2024/01/20 00:32:38;;;;;;;43.80;25.37;;;;;;;-0.58;100.00;101535.84;5054931;28;20226;-70
2024/01/20 00:35:09;;;;;;;38.80;23.93;;;;;;;-0.58;100.00;101525.31;5054815;28;20672;-70
2024/01/20 00:37:39;;;;;;;38.97;23.90;;;;;;;-0.56;100.00;101531.38;5055446;28;20198;-70
2024/01/20 00:40:08;;;;;;;36.67;22.87;;;;;;;-0.59;100.00;101536.78;5055154;28;20240;-70
2024/01/20 00:42:37;;;;;;;42.10;24.50;;;;;;;-0.55;100.00;101533.06;5054989;28;20261;-70
2024/01/20 00:45:07;;;;;;;38.87;25.07;;;;;;;-0.56;100.00;101536.66;5054917;28;20711;-70
2024/01/20 00:47:36;;;;;;;36.87;23.70;;;;;;;-0.55;100.00;101534.88;5054971;28;20202;-70
2024/01/20 00:50:09;;;;;;;37.80;23.97;;;;;;;-0.54;100.00;101534.78;5054966;28;20194;-70
2024/01/20 00:52:38;;;;;;;35.87;23.70;;;;;;;-0.55;100.00;101532.25;5054834;28;20330;-70
2024/01/20 00:55:07;;;;;;;35.40;23.23;;;;;;;-0.53;100.00;101531.25;5054821;28;20217;-70
2024/01/20 00:57:36;;;;;;;37.67;23.43;;;;;;;-0.51;100.00;101533.78;5054774;28;20214;-70
2024/01/20 01:00:08;;;;;;;40.60;24.00;;;;;;;-0.53;100.00;101531.25;5054751;28;20242;-70
2024/01/20 01:02:37;;;;;;;39.07;23.80;;;;;;;-0.54;100.00;101540.06;5054673;28;20233;-70
2024/01/20 01:05:08;;;;;;;40.53;24.80;;;;;;;-0.55;100.00;101538.34;5054268;28;20733;-70
2024/01/20 01:07:37;;;;;;;36.17;22.77;;;;;;;-0.56;100.00;101536.66;5054293;28;20679;-70
2024/01/20 01:10:07;;;;;;;33.37;23.30;;;;;;;-0.59;100.00;101541.19;5054532;28;20264;-70
2024/01/20 01:12:35;;;;;;;40.80;23.97;;;;;;;-0.60;100.00;101540.34;5054393;28;20276;-70
2024/01/20 01:15:05;;;;;;;41.03;23.90;;;;;;;-0.58;100.00;101549.00;5054396;28;20229;-70
2024/01/20 01:17:33;;;;;;;37.37;23.77;;;;;;;-0.55;100.00;101554.13;5054042;28;20606;-70
2024/01/20 01:20:02;;;;;;;36.67;24.23;;;;;;;-0.51;100.00;101545.16;5054056;28;20206;-70
2024/01/20 01:22:32;;;;;;;39.07;23.60;;;;;;;-0.51;100.00;101547.78;5054217;28;20300;-70
2024/01/20 01:25:01;;;;;;;39.83;24.13;;;;;;;-0.50;100.00;101559.19;5054490;28;20681;-70
2024/01/20 01:27:29;;;;;;;46.37;24.40;;;;;;;-0.54;100.00;101558.47;5054229;28;20207;-70
2024/01/20 01:29:58;;;;;;;39.90;24.53;;;;;;;-0.50;100.00;101556.53;5054195;28;20275;-70
2024/01/20 01:32:26;;;;;;;37.20;23.20;;;;;;;-0.54;100.00;101563.72;5054055;28;20276;-70
2024/01/20 01:34:55;;;;;;;36.83;23.47;;;;;;;-0.53;100.00;101556.69;5053793;28;20205;-71
2024/01/20 01:37:23;;;;;;;36.00;23.07;;;;;;;-0.53;100.00;101557.53;5053939;28;20214;-70
2024/01/20 01:39:55;;;;;;;42.53;25.57;;;;;;;-0.52;100.00;101564.53;5054046;28;20190;-70
2024/01/20 01:42:24;;;;;;;41.60;26.03;;;;;;;-0.53;100.00;101568.06;5053459;28;20210;-71
2024/01/20 01:44:53;;;;;;;38.40;23.53;;;;;;;-0.53;100.00;101565.44;5053793;28;20226;-70
2024/01/20 01:47:22;;;;;;;40.20;24.60;;;;;;;-0.50;100.00;101561.81;5053546;28;20237;-70
2024/01/20 01:49:51;;;;;;;37.93;23.97;;;;;;;-0.51;100.00;101566.22;5053836;28;20264;-70
2024/01/20 01:52:21;;;;;;;36.00;23.87;;;;;;;-0.51;100.00;101574.09;5053699;28;20207;-70
2024/01/20 01:54:50;;;;;;;39.77;24.67;;;;;;;-0.52;100.00;101572.41;5055111;28;20234;-70
2024/01/20 01:57:21;;;;;;;38.20;24.37;;;;;;;-0.49;100.00;101573.19;5053928;28;20293;-70
2024/01/20 01:59:50;;;;;;;41.20;24.27;;;;;;;-0.51;100.00;101587.25;5053756;28;20198;-70
2024/01/20 02:02:18;;;;;;;40.13;24.17;;;;;;;-0.50;100.00;101577.59;5053275;28;20615;-70
2024/01/20 02:04:47;;;;;;;37.20;24.70;;;;;;;-0.52;100.00;101582.94;5053556;28;20316;-70
2024/01/20 02:07:16;;;;;;;41.17;24.77;;;;;;;-0.52;100.00;101584.72;5053595;28;20256;-70
2024/01/20 02:09:46;;;;;;;39.40;24.73;;;;;;;-0.52;100.00;101596.09;5053522;28;20202;-70
2024/01/20 02:12:15;;;;;;;37.47;23.47;;;;;;;-0.52;100.00;101584.72;5053124;28;20719;-71
2024/01/20 02:14:46;;;;;;;40.43;25.47;;;;;;;-0.53;100.00;101594.38;5053477;28;20206;-70
2024/01/20 02:17:14;;;;;;;40.30;25.07;;;;;;;-0.54;100.00;101587.41;5053210;28;20640;-70
2024/01/20 02:19:43;;;;;;;38.70;24.23;;;;;;;-0.54;100.00;101590.03;5053114;28;20301;-70
2024/01/20 02:22:14;;;;;;;37.67;24.23;;;;;;;-0.52;100.00;101588.19;5053320;28;20206;-70
2024/01/20 02:24:48;;;;;;;41.47;24.93;;;;;;;-0.50;100.00;101593.38;5053312;28;20257;-70
2024/01/20 02:27:16;;;;;;;42.23;25.43;;;;;;;-0.51;100.00;101582.00;5053353;28;20277;-70
2024/01/20 02:29:45;;;;;;;39.33;24.53;;;;;;;-0.50;100.00;101572.31;5052965;28;20580;-70
2024/01/20 02:32:14;;;;;;;41.03;24.23;;;;;;;-0.51;100.00;101582.00;5053209;28;20209;-70
2024/01/20 02:34:43;;;;;;;38.20;24.40;;;;;;;-0.52;100.00;101575.03;5053162;28;20213;-70
2024/01/20 02:37:12;;;;;;;37.30;23.80;;;;;;;-0.52;100.00;101574.19;5053241;28;20233;-70
2024/01/20 02:39:41;;;;;;;37.40;24.40;;;;;;;-0.53;100.00;101575.97;5053210;28;20209;-70
2024/01/20 02:42:10;;;;;;;37.60;24.33;;;;;;;-0.53;100.00;101578.59;5052910;28;20690;-70
2024/01/20 02:44:39;;;;;;;37.97;23.90;;;;;;;-0.52;100.00;101584.72;5053138;28;20593;-70
2024/01/20 02:47:08;;;;;;;42.43;24.87;;;;;;;-0.51;100.00;101582.00;5053195;28;20237;-70
2024/01/20 02:49:36;;;;;;;38.93;23.03;;;;;;;-0.52;100.00;101582.06;5052809;28;20671;-70
2024/01/20 02:52:05;;;;;;;41.30;23.67;;;;;;;-0.51;100.00;101587.25;5053113;28;20230;-70
2024/01/20 02:54:35;;;;;;;43.07;23.47;;;;;;;-0.53;100.00;101589.09;5053937;28;20225;-70
2024/01/20 02:57:04;;;;;;;36.47;22.97;;;;;;;-0.53;100.00;101594.38;5057088;28;20217;-70
2024/01/20 02:59:32;;;;;;;42.73;23.80;;;;;;;-0.53;100.00;101599.63;5056711;28;20206;-70
2024/01/20 03:02:02;;;;;;;41.63;24.07;;;;;;;-0.53;100.00;101588.25;5057009;28;20547;-70
2024/01/20 03:04:31;;;;;;;37.43;22.63;;;;;;;-0.55;100.00;101585.69;5056806;28;20234;-70
2024/01/20 03:06:59;;;;;;;39.83;23.10;;;;;;;-0.52;100.00;101585.56;5057201;28;20217;-70
2024/01/20 03:09:28;;;;;;;40.50;22.23;;;;;;;-0.48;100.00;101593.31;5056923;28;20725;-70
2024/01/20 03:11:58;;;;;;;41.70;24.10;;;;;;;-0.47;100.00;101593.22;5056786;28;20202;-70
2024/01/20 03:14:27;;;;;;;41.73;23.37;;;;;;;-0.45;100.00;101590.53;5056755;28;20222;-70
2024/01/20 03:16:56;;;;;;;45.20;24.03;;;;;;;-0.45;100.00;101588.78;5056749;28;20206;-70
2024/01/20 03:19:24;;;;;;;39.53;23.53;;;;;;;-0.45;100.00;101586.13;5056520;28;20238;-70
2024/01/20 03:21:53;;;;;;;42.90;23.97;;;;;;;-0.45;100.00;101590.53;5056599;28;20208;-70
2024/01/20 03:24:21;;;;;;;40.67;23.93;;;;;;;-0.44;100.00;101581.69;5056141;28;20230;-70
2024/01/20 03:26:50;;;;;;;41.63;22.77;;;;;;;-0.45;100.00;101569.50;5056271;28;20255;-70
2024/01/20 03:29:21;;;;;;;42.43;23.37;;;;;;;-0.43;100.00;101592.16;5056134;28;20231;-70
2024/01/20 03:31:49;;;;;;;39.60;22.40;;;;;;;-0.46;100.00;101592.31;5056134;28;20202;-70
2024/01/20 03:34:18;;;;;;;39.80;22.63;;;;;;;-0.45;100.00;101598.44;5056192;28;20316;-70
2024/01/20 03:36:47;;;;;;;39.43;22.60;;;;;;;-0.48;100.00;101593.31;5056474;28;20248;-70
2024/01/20 03:39:15;;;;;;;40.90;22.03;;;;;;;-0.48;100.00;101595.94;5055975;28;20264;-70
2024/01/20 03:41:44;;;;;;;37.57;22.67;;;;;;;-0.48;100.00;101606.47;5056315;28;20206;-69
2024/01/20 03:44:13;;;;;;;41.73;22.57;;;;;;;-0.51;100.00;101603.03;5056153;28;20317;-70
2024/01/20 03:46:43;;;;;;;36.77;22.30;;;;;;;-0.51;100.00;101603.03;5056096;28;20268;-71
2024/01/20 03:49:11;;;;;;;43.40;24.47;;;;;;;-0.53;100.00;101610.16;5056140;28;20206;-70
2024/01/20 03:51:40;;;;;;;43.13;22.60;;;;;;;-0.55;100.00;101614.59;5055754;28;20738;-70
2024/01/20 03:54:08;;;;;;;40.07;23.10;;;;;;;-0.54;100.00;101624.22;5056002;28;20312;-70
2024/01/20 03:56:43;;;;;;;39.90;23.57;;;;;;;-0.55;100.00;101619.88;5055946;28;20206;-71
2024/01/20 03:59:11;;;;;;;41.20;24.17;;;;;;;-0.54;100.00;101624.22;5056732;28;20243;-71
2024/01/20 04:01:41;;;;;;;37.17;22.33;;;;;;;-0.54;100.00;101624.22;5055844;28;20297;-70
2024/01/20 04:04:10;;;;;;;47.30;24.10;;;;;;;-0.53;100.00;101638.22;5055813;28;20786;-63
2024/01/20 04:06:39;;;;;;;40.87;22.87;;;;;;;-0.51;100.00;101634.59;5055427;28;20257;-67
2024/01/20 04:09:07;;;;;;;42.43;23.00;;;;;;;-0.48;100.00;101638.03;5055421;28;20268;-67
2024/01/20 04:11:36;;;;;;;40.10;23.43;;;;;;;-0.50;100.00;101643.34;5055335;28;20627;-67
2024/01/20 04:14:04;;;;;;;42.47;23.33;;;;;;;-0.51;100.00;101650.38;5055582;28;20257;-67
2024/01/20 04:16:34;;;;;;;41.90;22.97;;;;;;;-0.49;100.00;101636.31;5055594;28;20235;-67
2024/01/20 04:19:04;;;;;;;39.60;23.07;;;;;;;-0.51;100.00;101639.00;5055578;28;20213;-67
2024/01/20 04:21:32;;;;;;;41.17;22.53;;;;;;;-0.54;100.00;101645.25;5055578;28;20229;-67
2024/01/20 04:24:01;;;;;;;46.33;23.70;;;;;;;-0.55;100.00;101638.28;5055610;28;20222;-67
2024/01/20 04:26:29;;;;;;;40.07;22.27;;;;;;;-0.56;100.00;101644.47;5055441;28;20226;-67
2024/01/20 04:28:58;;;;;;;41.07;22.60;;;;;;;-0.56;100.00;101647.13;5055417;28;20292;-67
2024/01/20 04:31:26;;;;;;;38.93;23.67;;;;;;;-0.56;100.00;101648.88;5055281;28;20210;-67
2024/01/20 04:33:55;;;;;;;41.13;23.20;;;;;;;-0.56;100.00;101652.38;5054858;28;20599;-67
2024/01/20 04:36:25;;;;;;;47.87;24.20;;;;;;;-0.55;100.00;101653.22;5054861;28;20213;-67
2024/01/20 04:38:54;;;;;;;39.13;23.43;;;;;;;-0.56;100.00;101656.78;5054943;28;20628;-67
2024/01/20 04:41:22;;;;;;;41.70;23.87;;;;;;;-0.57;100.00;101652.44;5055177;28;20232;-67
2024/01/20 04:43:51;;;;;;;35.30;23.03;;;;;;;-0.59;100.00;101662.16;5055023;28;20228;-67
2024/01/20 04:46:20;;;;;;;43.83;23.70;;;;;;;-0.60;100.00;101656.06;5054654;28;20648;-67
2024/01/20 04:48:48;;;;;;;37.27;22.27;;;;;;;-0.60;100.00;101658.69;5055034;28;20206;-67
2024/01/20 04:51:17;;;;;;;39.63;23.57;;;;;;;-0.59;100.00;101665.66;5054639;28;20217;-67
2024/01/20 04:53:47;;;;;;;40.93;22.13;;;;;;;-0.61;100.00;101675.38;5054532;28;20772;-67
2024/01/20 04:56:19;;;;;;;42.17;22.37;;;;;;;-0.61;100.00;101678.00;5054877;28;20297;-67
2024/01/20 04:58:48;;;;;;;37.47;21.87;;;;;;;-0.62;100.00;101686.81;5054740;28;20663;-67
2024/01/20 05:01:16;;;;;;;38.90;21.40;;;;;;;-0.60;100.00;101687.63;5054778;28;20384;-67
2024/01/20 05:03:45;;;;;;;36.63;22.00;;;;;;;-0.60;100.00;101684.97;5054645;28;20284;-67
2024/01/20 05:06:14;;;;;;;37.23;21.97;;;;;;;-0.62;100.00;101689.44;5054559;28;20586;-67
2024/01/20 05:08:42;;;;;;;34.33;21.67;;;;;;;-0.62;100.00;101689.44;5054568;28;20209;-67
2024/01/20 05:11:12;;;;;;;36.07;21.70;;;;;;;-0.62;100.00;101694.69;5054255;28;20374;-67
2024/01/20 05:13:41;;;;;;;32.63;20.70;;;;;;;-0.62;100.00;101705.22;5054307;28;20326;-67
2024/01/20 05:16:10;;;;;;;33.03;19.97;;;;;;;-0.64;100.00;101695.69;5054732;28;20206;-67
2024/01/20 05:18:38;;;;;;;38.33;21.17;;;;;;;-0.69;100.00;101695.91;5053613;28;20202;-67
2024/01/20 05:21:12;;;;;;;34.43;21.30;;;;;;;-0.69;100.00;101700.31;5054653;28;20638;-67
2024/01/20 05:23:41;;;;;;;35.97;19.73;;;;;;;-0.69;100.00;101692.41;5054272;28;20257;-67
2024/01/20 05:26:09;;;;;;;36.57;20.07;;;;;;;-0.71;100.00;101696.88;5054170;28;20240;-67
2024/01/20 05:28:39;;;;;;;36.77;20.83;;;;;;;-0.73;100.00;101694.31;5054153;28;20252;-67
2024/01/20 05:31:08;;;;;;;33.07;20.37;;;;;;;-0.75;100.00;101698.78;5054149;28;20271;-67
2024/01/20 05:33:36;;;;;;;37.80;21.77;;;;;;;-0.78;100.00;101696.28;5054079;28;20335;-67
2024/01/20 05:36:06;;;;;;;33.00;20.83;;;;;;;-0.78;100.00;101703.31;5054082;28;20215;-67
2024/01/20 05:38:34;;;;;;;29.67;19.27;;;;;;;-0.80;100.00;101711.28;5054040;28;20206;-67
2024/01/20 05:41:03;;;;;;;34.30;20.43;;;;;;;-0.80;100.00;101694.66;5053999;28;20238;-67
2024/01/20 05:43:31;;;;;;;34.83;20.50;;;;;;;-0.84;100.00;101707.06;5053570;28;20641;-67
2024/01/20 05:46:06;;;;;;;32.83;19.57;;;;;;;-0.84;100.00;101708.84;5053516;28;20798;-67
2024/01/20 05:48:36;;;;;;;29.33;18.57;;;;;;;-0.85;100.00;101705.34;5053998;28;20190;-67
2024/01/20 05:51:05;;;;;;;35.97;19.30;;;;;;;-0.89;100.00;101714.28;5053846;28;20279;-67
2024/01/20 05:53:34;;;;;;;31.93;18.53;;;;;;;-0.89;100.00;101722.16;5054014;28;20749;-67
2024/01/20 05:56:02;;;;;;;30.40;19.00;;;;;;;-0.90;100.00;101715.22;5053743;28;20285;-67
2024/01/20 05:58:31;;;;;;;30.40;18.57;;;;;;;-0.91;100.00;101723.16;5053680;28;20289;-67
2024/01/20 06:01:03;;;;;;;30.67;18.17;;;;;;;-0.92;100.00;101738.06;5053726;28;20214;-67
2024/01/20 06:03:32;;;;;;;32.07;19.73;;;;;;;-0.96;100.00;101736.50;5053227;28;20707;-67
2024/01/20 06:06:01;;;;;;;31.10;18.60;;;;;;;-0.96;100.00;101738.28;5053233;28;20261;-67
2024/01/20 06:08:29;;;;;;;32.33;19.63;;;;;;;-0.99;100.00;101741.84;5053820;28;20236;-67
2024/01/20 06:10:58;;;;;;;29.57;18.87;;;;;;;-1.05;100.00;101737.72;5053532;28;20238;-67
2024/01/20 06:13:26;;;;;;;32.53;17.90;;;;;;;-1.05;100.00;101750.00;5053848;28;20233;-67
2024/01/20 06:15:55;;;;;;;30.50;19.33;;;;;;;-1.09;100.00;101746.63;5053171;28;20664;-67
2024/01/20 06:18:26;;;;;;;30.43;18.73;;;;;;;-1.07;100.00;101754.47;5053108;28;20256;-67
2024/01/20 06:20:56;;;;;;;34.27;18.27;;;;;;;-1.06;100.00;101750.91;5053437;28;20195;-67
2024/01/20 06:23:25;;;;;;;26.87;18.20;;;;;;;-1.11;100.00;101753.75;5053288;28;20280;-67
2024/01/20 06:25:53;;;;;;;33.90;18.67;;;;;;;-1.08;100.00;101747.50;5054253;28;20213;-67
2024/01/20 06:28:25;;;;;;;30.33;18.10;;;;;;;-1.06;100.00;101754.38;5053258;28;20194;-67
2024/01/20 06:30:54;;;;;;;31.47;18.23;;;;;;;-1.06;100.00;101753.53;5053285;28;20202;-67
2024/01/20 06:33:24;;;;;;;29.73;18.73;;;;;;;-1.13;100.00;101755.56;5052900;28;20226;-67
2024/01/20 06:35:53;;;;;;;27.30;16.93;;;;;;;-1.14;100.00;101758.25;5052835;28;20741;-67
2024/01/20 06:38:21;;;;;;;30.10;17.20;;;;;;;-1.16;100.00;101755.69;5053413;28;20254;-67
2024/01/20 06:40:50;;;;;;;31.13;18.03;;;;;;;-1.19;100.00;101761.06;5053186;28;20208;-67
2024/01/20 06:43:20;;;;;;;29.37;17.20;;;;;;;-1.22;100.00;101760.31;5052798;28;20233;-67
2024/01/20 06:45:49;;;;;;;28.00;17.17;;;;;;;-1.19;100.00;101765.47;5053212;28;20190;-67
2024/01/20 06:48:18;;;;;;;29.13;16.70;;;;;;;-1.21;100.00;101767.31;5053066;28;20234;-67
2024/01/20 06:50:48;;;;;;;29.90;17.50;;;;;;;-1.22;100.00;101770.84;5053381;28;20206;-67
2024/01/20 06:53:16;;;;;;;30.80;17.03;;;;;;;-1.23;100.00;101774.38;5053074;28;20262;-67
2024/01/20 06:55:45;;;;;;;30.47;17.37;;;;;;;-1.27;100.00;101773.66;5052753;28;20322;-67
2024/01/20 06:58:13;;;;;;;24.73;16.63;;;;;;;-1.28;100.00;101774.56;5053088;28;20225;-67
2024/01/20 07:00:42;;;;;;;28.50;16.80;;;;;;;-1.30;100.00;101772.94;5053001;28;20256;-67
2024/01/20 07:03:11;;;;;;;28.50;16.80;;;;;;;-1.27;100.00;101775.44;5052968;28;20271;-67
2024/01/20 07:05:39;;;;;;;26.90;17.30;;;;;;;-1.28;100.00;101778.97;5052719;28;20241;-67
2024/01/20 07:08:10;;;;;;;29.33;16.97;;;;;;;-1.31;100.00;101786.97;5052871;28;20225;-67
2024/01/20 07:10:39;;;;;;;28.00;16.53;;;;;;;-1.30;100.00;101778.19;5052684;28;20233;-67
2024/01/20 07:13:07;;;;;;;28.87;17.83;;;;;;;-1.29;100.00;101782.50;5053123;28;20236;-67
2024/01/20 07:15:36;;;;;;;25.63;16.77;;;;;;;-1.30;100.00;101783.44;5052583;28;20672;-67
2024/01/20 07:18:05;;;;;;;28.07;16.20;;;;;;;-1.31;100.00;101787.81;5052548;28;20692;-67
2024/01/20 07:20:33;;;;;;;27.93;17.73;;;;;;;-1.35;100.00;101791.47;5052547;28;20210;-67
2024/01/20 07:23:02;;;;;;;28.03;15.70;;;;;;;-1.32;100.00;101801.00;5052724;28;20265;-67
2024/01/20 07:25:36;;;;;;;27.37;16.30;;;;;;;-1.31;100.00;101797.47;5052798;28;20210;-67
2024/01/20 07:28:05;;;;;;;27.90;16.53;;;;;;;-1.32;100.00;101791.38;5053049;28;20210;-67
2024/01/20 07:30:33;;;;;;;27.27;16.13;;;;;;;-1.34;100.00;101795.84;5052487;28;20769;-67
2024/01/20 07:33:02;;;;;;;29.70;17.00;;;;;;;-1.35;100.00;101794.13;5052658;28;20234;-67
2024/01/20 07:35:30;;;;;;;26.97;16.57;;;;;;;-1.35;100.00;101803.75;5052410;28;20217;-67
2024/01/20 07:37:59;;;;;;;31.47;16.67;;;;;;;-1.39;100.00;101799.53;5052727;28;20297;-67
2024/01/20 07:40:27;;;;;;;26.07;16.97;;;;;;;-1.36;100.00;101804.66;5053370;28;20206;-67
2024/01/20 07:42:57;;;;;;;32.27;17.63;;;;;;;-1.39;100.00;101799.53;5056225;28;20226;-67
2024/01/20 07:45:26;;;;;;;25.67;15.97;;;;;;;-1.41;100.00;101799.59;5056473;28;20300;-67
2024/01/20 07:47:55;;;;;;;30.77;16.97;;;;;;;-1.43;100.00;101808.44;5056164;28;20232;-67
2024/01/20 07:50:24;;;;;;;24.03;15.30;;;;;;;-1.41;100.00;101802.22;5056153;28;20206;-67
2024/01/20 07:52:52;;;;;;;24.63;15.80;;;;;;;-1.45;100.00;101799.78;5055747;28;20711;-67
2024/01/20 07:55:21;;;;;;;28.63;17.57;;;;;;;-1.45;100.00;101803.25;5056037;28;20302;-67
2024/01/20 07:57:49;;;;;;;30.60;17.53;;;;;;;-1.45;100.00;101815.53;5055992;28;20289;-67
2024/01/20 08:00:20;;;;;;;31.87;17.50;;;;;;;-1.46;100.00;101822.53;5055611;28;20715;-67
2024/01/20 08:02:49;;;;;;;28.07;17.23;;;;;;;-1.42;100.00;101824.16;5055893;28;20229;-67
2024/01/20 08:05:17;;;;;;;30.13;18.73;;;;;;;-1.43;100.00;101835.56;5056074;28;20206;-67
2024/01/20 08:07:46;;;;;;;28.10;18.17;;;;;;;-1.41;100.00;101838.16;5055789;28;20230;-67
2024/01/20 08:10:15;;;;;;;28.43;17.93;;;;;;;-1.39;100.00;101845.03;5055772;28;20301;-67
2024/01/20 08:12:43;;;;;;;28.47;16.27;;;;;;;-1.36;100.00;101841.44;5055661;28;20321;-67
2024/01/20 08:15:12;;;;;;;29.83;17.77;;;;;;;-1.35;100.00;101848.41;5055341;28;20206;-67
2024/01/20 08:17:42;;;;;;;29.27;17.57;;;;;;;-1.33;100.00;101846.56;5055596;28;20202;-67
2024/01/20 08:20:12;;;;;;;32.03;18.20;;;;;;;-1.31;100.00;101844.75;5055641;28;20194;-67
2024/01/20 08:22:41;;;;;;;29.20;17.93;;;;;;;-1.28;100.00;101855.16;5055453;28;20266;-67
2024/01/20 08:25:09;;;;;;;32.67;18.30;;;;;;;-1.29;100.00;101853.44;5055479;28;20202;-67
2024/01/20 08:27:38;;;;;;;31.70;18.03;;;;;;;-1.26;100.00;101862.06;5055308;28;20226;-67
2024/01/20 08:30:08;;;;;;;34.53;19.70;;;;;;;-1.23;100.00;101871.56;5055399;28;20206;-67
2024/01/20 08:32:37;;;;;;;33.27;18.60;;;;;;;-1.21;100.00;101861.88;5055316;28;20229;-67
2024/01/20 08:35:07;;;;;;;30.07;18.00;;;;;;;-1.19;100.00;101868.78;5055074;28;20339;-67
2024/01/20 08:37:36;;;;;;;36.80;20.27;;;;;;;-1.18;100.00;101873.13;5055520;28;20222;-67
2024/01/20 08:40:06;;;;;;;35.70;19.20;;;;;;;-1.16;100.00;101862.56;5054895;28;20258;-67
2024/01/20 08:42:34;;;;;;;35.60;20.23;;;;;;;-1.14;100.00;101873.88;5054770;28;20665;-67
2024/01/20 08:45:03;;;;;;;33.50;18.53;;;;;;;-1.13;100.00;101872.97;5055076;28;20212;-67
2024/01/20 08:47:32;;;;;;;36.93;19.80;;;;;;;-1.09;100.00;101877.16;5055015;28;20226;-67
2024/01/20 08:50:00;;;;;;;33.37;19.27;;;;;;;-1.07;100.00;101878.00;5054958;28;20642;-67
2024/01/20 08:52:30;;;;;;;30.47;18.67;;;;;;;-1.04;100.00;101880.50;5053469;28;20202;-67
2024/01/20 08:54:59;;;;;;;31.93;19.03;;;;;;;-1.03;100.00;101882.22;5054956;28;20202;-67
2024/01/20 08:57:29;;;;;;;35.43;19.07;;;;;;;-1.00;100.00;101887.34;5054858;28;20211;-67
2024/01/20 08:59:58;;;;;;;34.63;20.17;;;;;;;-0.98;100.00;101882.88;5055072;28;20256;-67
2024/01/20 09:02:26;;;;;;;35.03;19.33;;;;;;;-0.93;100.00;101888.84;5054385;28;20672;-67
2024/01/20 09:04:55;;;;;;;31.17;18.83;;;;;;;-0.90;100.00;101877.34;5054408;28;20612;-67
2024/01/20 09:07:23;;;;;;;35.07;20.00;;;;;;;-0.89;100.00;101879.88;5054587;28;20201;-67
2024/01/20 09:09:54;;;;;;;29.50;18.30;;;;;;;-0.88;100.00;101886.88;5054298;28;20206;-67
2024/01/20 09:12:24;;;;;;;31.73;18.77;;;;;;;-0.88;100.00;101881.59;5054523;28;20284;-67
2024/01/20 09:14:52;;;;;;;32.37;18.50;;;;;;;-0.85;100.00;101891.13;5054585;28;20210;-67
2024/01/20 09:17:21;;;;;;;30.37;18.80;;;;;;;-0.84;100.00;101877.94;5054476;28;20202;-67
2024/01/20 09:19:49;;;;;;;31.80;19.37;;;;;;;-0.82;100.00;101891.88;5054444;28;20205;-67
2024/01/20 09:22:19;;;;;;;35.37;18.73;;;;;;;-0.80;100.00;101886.56;5054284;28;20209;-67
2024/01/20 09:24:47;;;;;;;34.53;19.17;;;;;;;-0.78;100.00;101890.84;5054073;28;20217;-67
2024/01/20 09:27:17;;;;;;;31.33;18.40;;;;;;;-0.73;100.00;101888.03;5054322;28;20305;-67
2024/01/20 09:29:46;;;;;;;32.53;18.80;;;;;;;-0.70;100.00;101901.94;5054163;28;20233;-67
2024/01/20 09:32:14;;;;;;;31.13;17.27;;;;;;;-0.67;100.00;101901.81;5054149;28;20293;-67
2024/01/20 09:34:42;;;;;;;31.67;17.87;;;;;;;-0.61;100.00;101903.31;5053781;28;20677;-67
2024/01/20 09:37:11;;;;;;;32.73;18.13;;;;;;;-0.60;100.00;101898.00;5053804;28;20656;-67
2024/01/20 09:39:40;;;;;;;31.13;18.00;;;;;;;-0.53;100.00;101904.75;5054034;28;20288;-67
2024/01/20 09:42:09;;;;;;;27.93;16.80;;;;;;;-0.52;100.00;101914.34;5054040;28;20206;-67
2024/01/20 09:44:39;;;;;;;30.53;17.60;;;;;;;-0.52;100.00;101911.72;5053922;28;20230;-67
2024/01/20 09:47:11;;;;;;;27.00;17.07;;;;;;;-0.53;100.00;101920.53;5053942;28;20292;-67
2024/01/20 09:49:39;;;;;;;28.90;17.50;;;;;;;-0.48;100.00;101920.34;5053906;28;20245;-67
2024/01/20 09:52:15;;;;;;;30.93;17.63;;;;;;;-0.45;100.00;101924.63;5053866;28;20206;-67
2024/01/20 09:54:55;;;;;;;27.57;16.37;;;;;;;-0.40;100.00;101920.03;5053885;28;20272;-67
2024/01/20 09:57:25;;;;;;;27.47;16.93;;;;;;;-0.36;100.00;101924.25;5054330;28;20293;-67
2024/01/20 09:59:57;;;;;;;25.03;16.10;;;;;;;-0.34;100.00;101911.91;5053791;28;20190;-67
2024/01/20 10:02:29;;;;;;;24.17;15.87;;;;;;;-0.34;100.00;101917.16;5053655;28;20285;-67
2024/01/20 10:05:04;;;;;;;28.17;16.23;;;;;;;-0.29;100.00;101913.41;5053604;28;20191;-67
2024/01/20 10:07:33;;;;;;;27.70;16.37;;;;;;;-0.26;100.00;101908.03;5053644;28;20196;-67
2024/01/20 10:10:02;;;;;;;28.73;17.20;;;;;;;-0.24;99.86;101905.34;5053218;28;20232;-67
2024/01/20 10:12:31;;;;;;;31.13;16.80;;;;;;;-0.21;100.00;101899.94;5053180;28;20300;-67
2024/01/20 10:15:01;;;;;;;26.40;15.87;;;;;;;-0.18;99.42;101900.69;5053497;28;20206;-67
2024/01/20 10:17:29;;;;;;;28.73;15.70;;;;;;;-0.13;99.81;101901.31;5053160;28;20562;-67
2024/01/20 10:19:57;;;;;;;26.33;15.13;;;;;;;-0.06;97.95;101904.56;5053639;28;20746;-67
2024/01/20 10:22:26;;;;;;;28.47;16.50;;;;;;;-0.04;97.78;101910.63;5053690;28;20210;-67
2024/01/20 10:24:55;;;;;;;27.63;15.93;;;;;;;-0.03;97.99;101909.69;5053385;28;20267;-67
2024/01/20 10:27:24;;;;;;;28.77;15.37;;;;;;;0.04;97.19;101911.16;5053392;28;20205;-67
2024/01/20 10:29:53;;;;;;;24.23;15.40;;;;;;;0.06;96.71;101922.47;5053247;28;20226;-67
2024/01/20 10:32:24;;;;;;;25.73;15.33;;;;;;;0.07;96.15;101913.63;5053271;28;20256;-67
2024/01/20 10:34:52;;;;;;;27.17;14.67;;;;;;;0.09;96.95;101911.81;5053091;28;20214;-67
2024/01/20 10:37:25;;;;;;;24.60;14.70;;;;;;;0.16;96.59;101923.81;5053279;28;20202;-67
2024/01/20 10:39:56;;;;;;;29.33;15.63;;;;;;;0.17;96.69;101911.50;5053296;28;20288;-67
2024/01/20 10:42:31;;;;;;;27.73;15.70;;;;;;;0.16;96.34;101909.78;5053225;28;20226;-67
2024/01/20 10:45:05;;;;;;;29.07;15.83;;;;;;;0.16;96.60;101915.91;5053270;28;20189;-67
2024/01/20 10:47:37;;;;;;;26.17;14.43;;;;;;;0.18;96.72;101919.31;5052882;28;20558;-67
2024/01/20 10:50:07;;;;;;;29.03;15.37;;;;;;;0.22;96.93;101925.31;5052957;28;20305;-67
2024/01/20 10:52:37;;;;;;;25.77;15.47;;;;;;;0.26;96.32;101916.34;5053308;28;20309;-67
2024/01/20 10:55:06;;;;;;;26.73;14.27;;;;;;;0.24;96.41;101913.78;5053130;28;20233;-67
2024/01/20 10:57:35;;;;;;;26.03;14.73;;;;;;;0.25;97.03;101915.50;5053079;28;20244;-67
2024/01/20 11:00:08;;;;;;;27.03;15.67;;;;;;;0.33;96.90;101909.91;5052718;28;20664;-67
2024/01/20 11:02:39;;;;;;;22.10;13.93;;;;;;;0.40;96.32;101930.66;5052975;28;20318;-67
2024/01/20 11:05:19;;;;;;;25.63;14.97;;;;;;;0.38;95.80;101919.31;5053056;28;20281;-67
2024/01/20 11:07:58;;;;;;;26.03;14.83;;;;;;;0.45;95.55;101923.38;5053031;28;20273;-67
2024/01/20 11:10:27;;;;;;;28.97;15.90;;;;;;;0.50;95.57;101923.19;5053447;28;20226;-67